createdAt,value
2018-01-22T00:02:16.455Z,100870.83
2018-01-22T00:04:44.780Z,100878.11
2018-01-22T00:07:13.913Z,100865.98
2018-01-22T00:09:42.391Z,100868.62
2018-01-22T00:12:10.726Z,100866.80
2018-01-22T00:14:39.220Z,100852.91
2018-01-22T00:17:07.614Z,100845.48
2018-01-22T00:19:36.136Z,100834.23
2018-01-22T00:22:04.489Z,100827.64
2018-01-22T00:24:33.250Z,100828.81
2018-01-22T00:27:01.574Z,100823.03
2018-01-22T00:29:29.862Z,100812.69
2018-01-22T00:31:58.152Z,100811.94
2018-01-22T00:34:26.524Z,100803.68
2018-01-22T00:36:54.862Z,100808.64
2018-01-22T00:39:23.156Z,100803.75
2018-01-22T00:41:51.514Z,100802.10
2018-01-22T00:44:20.640Z,100799.57
2018-01-22T00:46:48.922Z,100778.23
2018-01-22T00:49:17.246Z,100760.97
2018-01-22T00:51:46.338Z,100757.75
2018-01-22T00:54:14.626Z,100748.00
2018-01-22T00:56:42.926Z,100750.80
2018-01-22T00:59:11.892Z,100749.64
2018-01-22T01:01:40.257Z,100734.45
2018-01-22T01:04:08.580Z,100726.44
2018-01-22T01:06:38.090Z,100721.98
2018-01-22T01:09:07.196Z,100724.95
2018-01-22T01:11:35.600Z,100727.44
2018-01-22T01:14:03.908Z,100714.05
2018-01-22T01:16:32.196Z,100700.25
2018-01-22T01:19:00.494Z,100702.24
2018-01-22T01:21:28.802Z,100714.36
2018-01-22T01:23:57.868Z,100714.28
2018-01-22T01:26:26.178Z,100716.02
2018-01-22T01:28:54.484Z,100713.29
2018-01-22T01:31:22.808Z,100707.09
2018-01-22T01:33:51.130Z,100708.42
2018-01-22T01:36:20.202Z,100701.89
2018-01-22T01:38:48.527Z,100711.89
2018-01-22T01:41:16.877Z,100713.55
2018-01-22T01:43:45.204Z,100716.66
2018-01-22T01:46:13.494Z,100716.00
2018-01-22T01:49:08.590Z,100717.16
2018-01-22T01:51:36.896Z,100706.50
2018-01-22T01:54:05.271Z,100685.01
2018-01-22T01:56:33.548Z,100680.70
2018-01-22T01:59:01.862Z,100663.84
2018-01-22T02:01:30.919Z,100655.00
2018-01-22T02:03:59.954Z,100655.00
2018-01-22T02:06:28.256Z,100661.20
2018-01-22T02:08:56.558Z,100657.56
2018-01-22T02:11:24.873Z,100636.41
2018-01-22T02:13:53.194Z,100641.36
2018-01-22T02:16:22.292Z,100637.23
2018-01-22T02:18:51.350Z,100645.66
2018-01-22T02:21:19.642Z,100663.69
2018-01-22T02:23:47.946Z,100664.09
2018-01-22T02:26:17.086Z,100652.44
2018-01-22T02:28:45.382Z,100656.98
2018-01-22T02:31:13.677Z,100656.82
2018-01-22T02:33:41.967Z,100647.73
2018-01-22T02:36:10.256Z,100641.66
2018-01-22T02:38:38.564Z,100645.12
2018-01-22T02:41:07.693Z,100637.06
2018-01-22T02:43:36.079Z,100629.63
2018-01-22T02:46:04.366Z,100634.42
2018-01-22T02:48:32.665Z,100631.08
2018-01-22T02:51:01.567Z,100628.59
2018-01-22T02:53:29.877Z,100627.69
2018-01-22T02:55:58.988Z,100613.13
2018-01-22T02:58:28.086Z,100612.80
2018-01-22T03:00:57.176Z,100603.34
2018-01-22T03:03:26.350Z,100609.87
2018-01-22T03:05:54.669Z,100610.56
2018-01-22T03:08:23.724Z,100608.12
2018-01-22T03:10:53.486Z,100608.38
2018-01-22T03:13:21.784Z,100596.55
2018-01-22T03:15:50.879Z,100606.47
2018-01-22T03:18:19.213Z,100600.19
2018-01-22T03:20:47.542Z,100593.66
2018-01-22T03:23:15.867Z,100582.78
2018-01-22T03:25:44.164Z,100582.38
2018-01-22T03:28:12.495Z,100569.48
2018-01-22T03:30:40.807Z,100578.25
2018-01-22T03:33:09.394Z,100580.98
2018-01-22T03:35:37.704Z,100561.34
2018-01-22T03:38:06.122Z,100568.95
2018-01-22T03:40:34.420Z,100569.70
2018-01-22T03:43:03.520Z,100562.88
2018-01-22T03:45:31.830Z,100560.52
2018-01-22T03:48:00.177Z,100559.58
2018-01-22T03:50:28.513Z,100562.80
2018-01-22T03:52:56.882Z,100559.08
2018-01-22T03:55:25.196Z,100551.55
2018-01-22T03:57:53.572Z,100552.70
2018-01-22T04:00:22.630Z,100553.85
2018-01-22T04:02:50.946Z,100554.09
2018-01-22T04:05:20.032Z,100554.18
2018-01-22T04:07:48.348Z,100547.19
2018-01-22T04:10:16.650Z,100551.56
2018-01-22T04:12:44.966Z,100555.86
2018-01-22T04:15:13.618Z,100548.91
2018-01-22T04:17:41.910Z,100550.89
2018-01-22T04:20:10.212Z,100541.01
2018-01-22T04:22:38.516Z,100537.80
2018-01-22T04:25:06.838Z,100527.28
2018-01-22T04:27:35.143Z,100516.14
2018-01-22T04:30:03.470Z,100521.59
2018-01-22T04:32:31.796Z,100532.25
2018-01-22T04:35:00.106Z,100515.28
2018-01-22T04:37:28.464Z,100529.17
2018-01-22T04:39:57.596Z,100530.43
2018-01-22T04:42:25.892Z,100531.17
2018-01-22T04:44:54.203Z,100523.90
2018-01-22T04:47:22.514Z,100524.38
2018-01-22T04:49:50.870Z,100527.12
2018-01-22T04:52:19.195Z,100530.26
2018-01-22T04:54:47.544Z,100532.06
2018-01-22T04:57:16.627Z,100537.55
2018-01-22T04:59:44.932Z,100534.72
2018-01-22T05:02:13.278Z,100528.91
2018-01-22T05:04:42.400Z,100524.26
2018-01-22T05:07:10.724Z,100523.70
2018-01-22T05:09:39.804Z,100524.50
2018-01-22T05:12:08.111Z,100526.83
2018-01-22T05:14:36.424Z,100516.62
2018-01-22T05:17:05.566Z,100521.34
2018-01-22T05:19:33.922Z,100521.87
2018-01-22T05:22:02.234Z,100515.41
2018-01-22T05:24:31.085Z,100524.98
2018-01-22T05:27:00.191Z,100528.75
2018-01-22T05:29:28.526Z,100534.31
2018-01-22T05:31:56.885Z,100534.02
2018-01-22T05:34:25.459Z,100530.30
2018-01-22T05:36:53.746Z,100534.56
2018-01-22T05:39:22.130Z,100543.92
2018-01-22T05:41:50.947Z,100543.30
2018-01-22T05:44:19.238Z,100539.92
2018-01-22T05:46:47.557Z,100542.80
2018-01-22T05:49:17.486Z,100551.23
2018-01-22T05:51:46.144Z,100558.98
2018-01-22T05:54:14.438Z,100560.28
2018-01-22T05:56:44.135Z,100564.36
2018-01-22T05:59:12.448Z,100566.85
2018-01-22T06:01:40.810Z,100580.13
2018-01-22T06:04:09.964Z,100583.35
2018-01-22T06:06:38.266Z,100587.20
2018-01-22T06:09:06.600Z,100577.45
2018-01-22T06:11:35.867Z,100575.05
2018-01-22T06:14:04.186Z,100576.05
2018-01-22T06:16:32.487Z,100560.39
2018-01-22T06:19:01.042Z,100555.59
2018-01-22T06:21:29.357Z,100557.78
2018-01-22T06:23:57.722Z,100552.92
2018-01-22T06:26:26.055Z,100555.21
2018-01-22T06:28:54.424Z,100558.20
2018-01-22T06:31:22.733Z,100566.53
2018-01-22T06:33:51.064Z,100584.03
2018-01-22T06:36:19.363Z,100584.61
2018-01-22T06:38:47.676Z,100588.04
2018-01-22T06:41:15.990Z,100591.88
2018-01-22T06:43:45.250Z,100590.47
2018-01-22T06:46:13.594Z,100602.69
2018-01-22T06:48:42.508Z,100599.16
2018-01-22T06:51:10.853Z,100607.96
2018-01-22T06:53:39.167Z,100601.77
2018-01-22T06:56:07.713Z,100612.02
2018-01-22T06:58:36.790Z,100628.80
2018-01-22T07:01:05.937Z,100631.59
2018-01-22T07:03:34.479Z,100628.24
2018-01-22T07:06:03.558Z,100622.45
2018-01-22T07:08:31.879Z,100629.65
2018-01-22T07:11:01.031Z,100632.91
2018-01-22T07:13:29.327Z,100636.43
2018-01-22T07:15:57.631Z,100627.95
2018-01-22T07:18:27.269Z,100634.22
2018-01-22T07:20:55.590Z,100638.02
2018-01-22T07:23:23.895Z,100648.56
2018-01-22T07:25:53.001Z,100645.50
2018-01-22T07:28:21.382Z,100642.97
2018-01-22T07:30:49.633Z,100647.46
2018-01-22T07:33:17.932Z,100643.66
2018-01-22T07:35:46.811Z,100653.42
2018-01-22T07:38:15.196Z,100657.31
2018-01-22T07:40:43.539Z,100665.74
2018-01-22T07:43:11.903Z,100668.81
2018-01-22T07:45:40.254Z,100673.12
2018-01-22T07:48:08.592Z,100674.59
2018-01-22T07:50:36.971Z,100689.91
2018-01-22T07:53:05.764Z,100692.98
2018-01-22T07:55:34.289Z,100701.79
2018-01-22T07:58:03.016Z,100702.52
2018-01-22T08:00:31.345Z,100714.72
2018-01-22T08:02:59.725Z,100723.02
2018-01-22T08:05:28.633Z,100723.47
2018-01-22T08:07:57.713Z,100734.94
2018-01-22T08:10:26.020Z,100735.89
2018-01-22T08:12:56.070Z,100737.83
2018-01-22T08:15:24.769Z,100740.20
2018-01-22T08:17:54.198Z,100741.53
2018-01-22T08:20:23.264Z,100743.41
2018-01-22T08:22:51.549Z,100744.46
2018-01-22T08:25:21.814Z,100747.76
2018-01-22T08:27:50.495Z,100748.77
2018-01-22T08:30:19.511Z,100752.90
2018-01-22T08:32:48.559Z,100743.67
2018-01-22T08:35:17.551Z,100737.25
2018-01-22T08:37:46.291Z,100740.36
2018-01-22T08:40:14.737Z,100732.41
2018-01-22T08:42:43.885Z,100737.12
2018-01-22T08:45:12.218Z,100742.36
2018-01-22T08:47:41.282Z,100745.18
2018-01-22T08:50:09.661Z,100754.12
2018-01-22T08:52:37.985Z,100749.84
2018-01-22T08:55:07.084Z,100753.68
2018-01-22T08:57:36.162Z,100754.82
2018-01-22T09:00:04.563Z,100759.73
2018-01-22T09:02:33.629Z,100765.91
2018-01-22T09:05:02.151Z,100772.48
2018-01-22T09:07:31.221Z,100770.83
2018-01-22T09:09:59.561Z,100773.63
2018-01-22T09:12:27.881Z,100779.58
2018-01-22T09:14:56.331Z,100782.47
2018-01-22T09:17:25.264Z,100776.73
2018-01-22T09:19:53.592Z,100787.80
2018-01-22T09:22:24.033Z,100789.44
2018-01-22T09:24:52.361Z,100788.84
2018-01-22T09:27:20.653Z,100787.22
2018-01-22T09:29:49.307Z,100791.44
2018-01-22T09:32:17.663Z,100800.16
2018-01-22T09:34:47.111Z,100796.13
2018-01-22T09:37:15.487Z,100794.17
2018-01-22T09:39:44.531Z,100803.46
2018-01-22T09:42:15.021Z,100804.88
2018-01-22T09:44:43.479Z,100798.95
2018-01-22T09:47:13.264Z,100805.94
2018-01-22T09:49:42.333Z,100804.83
2018-01-22T09:52:12.242Z,100807.14
2018-01-22T09:54:41.641Z,100818.45
2018-01-22T09:57:09.978Z,100827.44
2018-01-22T10:02:14.965Z,100828.40
2018-01-22T10:04:45.080Z,100834.70
2018-01-22T10:07:14.307Z,100832.23
2018-01-22T10:09:44.189Z,100835.75
2018-01-22T10:12:13.545Z,100828.69
2018-01-22T10:14:42.660Z,100829.95
2018-01-22T10:17:11.812Z,100842.05
2018-01-22T10:19:40.250Z,100842.05
2018-01-22T10:22:09.345Z,100843.89
2018-01-22T10:24:37.752Z,100845.45
2018-01-22T10:27:08.736Z,100841.63
2018-01-22T10:29:37.061Z,100847.33
2018-01-22T10:32:06.398Z,100852.61
2018-01-22T10:34:34.801Z,100849.86
2018-01-22T10:37:04.565Z,100846.11
2018-01-22T10:39:33.709Z,100850.56
2018-01-22T10:42:02.942Z,100846.16
2018-01-22T10:44:31.390Z,100850.78
2018-01-22T10:46:59.739Z,100851.61
2018-01-22T10:49:29.275Z,100845.86
2018-01-22T10:51:57.655Z,100851.00
2018-01-22T10:54:25.993Z,100854.94
2018-01-22T10:56:55.097Z,100852.25
2018-01-22T10:59:23.482Z,100851.68
2018-01-22T11:01:51.849Z,100859.16
2018-01-22T11:04:20.161Z,100866.38
2018-01-22T11:06:49.689Z,100863.30
2018-01-22T11:09:18.016Z,100859.19
2018-01-22T11:11:46.457Z,100860.50
2018-01-22T11:14:14.941Z,100875.19
2018-01-22T11:16:43.387Z,100877.36
2018-01-22T11:19:13.393Z,100870.69
2018-01-22T11:21:41.770Z,100875.12
2018-01-22T11:24:10.117Z,100877.29
2018-01-22T11:26:39.301Z,100869.59
2018-01-22T11:29:08.113Z,100881.80
2018-01-22T11:31:36.435Z,100891.56
2018-01-22T11:34:04.773Z,100891.04
2018-01-22T11:36:33.262Z,100888.05
2018-01-22T11:39:01.592Z,100891.37
2018-01-22T11:41:31.497Z,100890.02
2018-01-22T11:44:01.549Z,100903.39
2018-01-22T11:46:32.991Z,100901.64
2018-01-22T11:49:01.613Z,100898.14
2018-01-22T11:51:30.005Z,100898.16
2018-01-22T11:53:59.118Z,100908.22
2018-01-22T11:56:28.399Z,100906.59
2018-01-22T11:58:56.740Z,100917.17
2018-01-22T12:01:25.086Z,100913.05
2018-01-22T12:03:53.700Z,100908.22
2018-01-22T12:06:22.334Z,100910.98
2018-01-22T12:08:53.496Z,100908.41
2018-01-22T12:11:22.261Z,100908.02
2018-01-22T12:13:51.386Z,100908.43
2018-01-22T12:16:20.445Z,100915.11
2018-01-22T12:18:49.585Z,100915.83
2018-01-22T12:21:17.948Z,100919.33
2018-01-22T12:23:48.014Z,100918.29
2018-01-22T12:26:17.124Z,100923.92
2018-01-22T12:28:46.973Z,100925.86
2018-01-22T12:31:16.024Z,100937.77
2018-01-22T12:33:44.358Z,100929.34
2018-01-22T12:36:12.751Z,100935.81
2018-01-22T12:38:41.085Z,100932.04
2018-01-22T12:41:10.274Z,100921.90
2018-01-22T12:43:38.683Z,100919.52
2018-01-22T12:46:07.752Z,100924.26
2018-01-22T12:48:36.076Z,100926.81
2018-01-22T12:51:04.440Z,100932.90
2018-01-22T12:53:32.758Z,100935.35
2018-01-22T12:56:01.884Z,100929.28
2018-01-22T12:58:30.206Z,100931.74
2018-01-22T13:00:59.355Z,100945.49
2018-01-22T13:03:27.688Z,100944.04
2018-01-22T13:05:56.037Z,100950.62
2018-01-22T13:08:24.422Z,100957.72
2018-01-22T13:10:52.758Z,100957.28
2018-01-22T13:13:21.092Z,100960.37
2018-01-22T13:15:49.456Z,100965.30
2018-01-22T13:18:17.978Z,100971.56
2018-01-22T13:20:46.302Z,100970.42
2018-01-22T13:23:15.392Z,100973.41
2018-01-22T13:25:43.812Z,100984.50
2018-01-22T13:28:12.140Z,100992.22
2018-01-22T13:30:40.786Z,100990.98
2018-01-22T13:33:09.096Z,100988.07
2018-01-22T13:35:37.406Z,100986.11
2018-01-22T13:38:06.377Z,100990.30
2018-01-22T13:40:40.943Z,100995.64
2018-01-22T13:43:09.271Z,100993.40
2018-01-22T13:45:38.396Z,100987.52
2018-01-22T13:48:06.955Z,100992.16
2018-01-22T13:50:35.314Z,100989.69
2018-01-22T13:53:03.738Z,100987.59
2018-01-22T13:55:32.078Z,100998.88
2018-01-22T13:58:01.251Z,101002.16
2018-01-22T14:00:31.955Z,101018.20
2018-01-22T14:03:00.260Z,101015.82
2018-01-22T14:05:29.042Z,101030.38
2018-01-22T14:07:57.662Z,101037.79
2018-01-22T14:10:26.744Z,101042.91
2018-01-22T14:12:55.066Z,101042.27
2018-01-22T14:15:23.718Z,101039.67
2018-01-22T14:17:52.102Z,101052.38
2018-01-22T14:20:21.240Z,101053.12
2018-01-22T14:22:49.574Z,101059.25
2018-01-22T14:25:17.902Z,101065.06
2018-01-22T14:27:46.230Z,101067.58
2018-01-22T14:30:14.530Z,101072.21
2018-01-22T14:32:46.191Z,101086.56
2018-01-22T14:35:17.037Z,101089.66
2018-01-22T14:37:46.096Z,101095.14
2018-01-22T14:40:14.418Z,101105.97
2018-01-22T14:42:43.482Z,101114.38
2018-01-22T14:45:12.133Z,101112.78
2018-01-22T14:47:40.450Z,101113.98
2018-01-22T14:50:09.517Z,101122.27
2018-01-22T14:52:38.031Z,101135.50
2018-01-22T14:55:06.366Z,101146.23
2018-01-22T14:57:35.862Z,101154.97
2018-01-22T15:00:04.932Z,101166.31
2018-01-22T15:02:33.590Z,101171.33
2018-01-22T15:05:01.940Z,101177.95
2018-01-22T15:07:30.280Z,101194.00
2018-01-22T15:09:58.607Z,101199.22
2018-01-22T15:12:27.682Z,101205.48
2018-01-22T15:14:56.164Z,101213.56
2018-01-22T15:17:24.626Z,101224.14
2018-01-22T15:19:53.838Z,101224.41
2018-01-22T15:22:23.606Z,101230.06
2018-01-22T15:24:52.036Z,101231.81
2018-01-22T15:27:21.115Z,101238.02
2018-01-22T15:29:50.312Z,101240.81
2018-01-22T15:32:18.615Z,101236.70
2018-01-22T15:34:46.970Z,101246.31
2018-01-22T15:37:15.280Z,101245.25
2018-01-22T15:39:43.734Z,101242.83
2018-01-22T15:42:12.413Z,101237.77
2018-01-22T15:44:41.674Z,101229.27
2018-01-22T15:47:10.023Z,101233.53
2018-01-22T15:49:38.408Z,101238.54
2018-01-22T15:52:07.594Z,101229.20
2018-01-22T15:54:36.168Z,101235.86
2018-01-22T15:57:05.778Z,101246.70
2018-01-22T15:59:34.209Z,101244.81
2018-01-22T16:02:02.728Z,101249.76
2018-01-22T16:04:31.822Z,101260.10
2018-01-22T16:07:00.123Z,101267.52
2018-01-22T16:09:29.744Z,101279.77
2018-01-22T16:11:58.318Z,101288.44
2018-01-22T16:14:27.403Z,101291.64
2018-01-22T16:16:55.722Z,101305.45
2018-01-22T16:19:24.033Z,101307.77
2018-01-22T16:21:53.308Z,101306.20
2018-01-22T16:24:21.624Z,101315.63
2018-01-22T16:26:49.947Z,101325.06
2018-01-22T16:29:19.043Z,101332.84
2018-01-22T16:31:48.930Z,101340.09
2018-01-22T16:34:17.330Z,101346.52
2018-01-22T16:36:46.060Z,101350.18
2018-01-22T16:39:14.410Z,101355.42
2018-01-22T16:41:43.543Z,101374.62
2018-01-22T16:44:12.240Z,101382.23
2018-01-22T16:46:41.026Z,101387.97
2018-01-22T16:49:10.070Z,101386.55
2018-01-22T16:51:38.814Z,101395.97
2018-01-22T16:54:07.122Z,101402.20
2018-01-22T16:56:35.436Z,101408.36
2018-01-22T16:59:03.758Z,101410.61
2018-01-22T17:01:32.152Z,101408.53
2018-01-22T17:04:00.444Z,101417.58
2018-01-22T17:06:28.752Z,101420.59
2018-01-22T17:08:57.076Z,101427.47
2018-01-22T17:11:25.393Z,101421.05
2018-01-22T17:13:53.684Z,101422.95
2018-01-22T17:16:22.031Z,101439.38
2018-01-22T17:18:50.332Z,101432.45
2018-01-22T17:21:18.634Z,101440.09
2018-01-22T17:23:47.029Z,101443.33
2018-01-22T17:26:15.560Z,101444.92
2018-01-22T17:28:43.869Z,101445.77
2018-01-22T17:31:12.270Z,101449.72
2018-01-22T17:33:40.745Z,101454.77
2018-01-22T17:36:09.039Z,101442.39
2018-01-22T17:38:37.530Z,101454.86
2018-01-22T17:41:06.070Z,101458.03
2018-01-22T17:43:37.611Z,101455.72
2018-01-22T17:46:06.691Z,101462.45
2018-01-22T17:48:35.888Z,101466.57
2018-01-22T17:51:05.026Z,101467.16
2018-01-22T17:53:33.372Z,101476.97
2018-01-22T17:56:02.566Z,101471.91
2018-01-22T17:58:31.657Z,101475.06
2018-01-22T18:01:00.370Z,101480.88
2018-01-22T18:03:29.816Z,101480.92
2018-01-22T18:05:59.962Z,101488.98
2018-01-22T18:08:29.987Z,101501.07
2018-01-22T18:10:58.379Z,101501.66
2018-01-22T18:13:26.840Z,101490.80
2018-01-22T18:15:55.171Z,101495.22
2018-01-22T18:18:23.537Z,101497.22
2018-01-22T18:20:51.907Z,101505.04
2018-01-22T18:23:21.502Z,101496.80
2018-01-22T18:25:49.834Z,101501.55
2018-01-22T18:28:18.939Z,101510.78
2018-01-22T18:30:48.047Z,101504.28
2018-01-22T18:33:16.382Z,101516.34
2018-01-22T18:35:45.543Z,101508.36
2018-01-22T18:38:13.893Z,101523.27
2018-01-22T18:40:43.030Z,101529.83
2018-01-22T18:43:11.413Z,101536.49
2018-01-22T18:45:39.834Z,101535.50
2018-01-22T18:48:09.040Z,101545.83
2018-01-22T18:50:37.375Z,101558.77
2018-01-22T18:53:05.705Z,101573.66
2018-01-22T18:55:34.824Z,101566.84
2018-01-22T18:58:03.141Z,101559.19
2018-01-22T19:00:31.550Z,101555.31
2018-01-22T19:03:01.537Z,101567.72
2018-01-22T19:05:29.850Z,101570.30
2018-01-22T19:07:58.242Z,101579.11
2018-01-22T19:10:26.599Z,101578.61
2018-01-22T19:12:55.005Z,101578.82
2018-01-22T19:15:23.332Z,101572.50
2018-01-22T19:17:52.441Z,101571.33
2018-01-22T19:20:21.515Z,101574.57
2018-01-22T19:22:49.860Z,101574.53
2018-01-22T19:25:18.182Z,101571.28
2018-01-22T19:27:47.275Z,101577.52
2018-01-22T19:30:15.667Z,101583.67
2018-01-22T19:32:44.293Z,101603.44
2018-01-22T19:35:12.625Z,101595.09
2018-01-22T19:37:40.942Z,101596.30
2018-01-22T19:40:10.290Z,101597.22
2018-01-22T19:42:38.595Z,101603.02
2018-01-22T19:45:09.357Z,101603.69
2018-01-22T19:47:37.708Z,101617.04
2018-01-22T19:50:06.041Z,101613.05
2018-01-22T19:52:34.423Z,101623.13
2018-01-22T19:55:02.734Z,101629.69
2018-01-22T19:57:31.819Z,101633.31
2018-01-22T20:00:00.134Z,101639.05
2018-01-22T20:02:28.478Z,101653.37
2018-01-22T20:04:57.623Z,101649.42
2018-01-22T20:07:25.986Z,101650.58
2018-01-22T20:09:54.375Z,101651.33
2018-01-22T20:12:22.684Z,101661.31
2018-01-22T20:14:50.993Z,101664.48
2018-01-22T20:17:19.312Z,101669.38
2018-01-22T20:19:47.598Z,101668.64
2018-01-22T20:22:15.905Z,101671.72
2018-01-22T20:24:44.992Z,101677.46
2018-01-22T20:27:13.281Z,101676.12
2018-01-22T20:29:41.578Z,101690.37
2018-01-22T20:32:10.677Z,101687.00
2018-01-22T20:34:39.804Z,101679.92
2018-01-22T20:37:08.103Z,101684.16
2018-01-22T20:39:36.402Z,101678.67
2018-01-22T20:42:04.709Z,101676.75
2018-01-22T20:44:33.795Z,101678.00
2018-01-22T20:47:02.107Z,101685.16
2018-01-22T20:49:31.186Z,101682.24
2018-01-22T20:51:59.496Z,101691.32
2018-01-22T20:54:28.169Z,101690.75
2018-01-22T20:56:56.486Z,101697.23
2018-01-22T20:59:24.781Z,101701.27
2018-01-22T21:01:53.084Z,101697.86
2018-01-22T21:04:21.381Z,101717.09
2018-01-22T21:06:49.673Z,101722.67
2018-01-22T21:09:17.963Z,101729.28
2018-01-22T21:11:47.061Z,101731.19
2018-01-22T21:14:16.111Z,101739.59
2018-01-22T21:16:44.416Z,101732.02
2018-01-22T21:19:12.731Z,101738.21
2018-01-22T21:21:41.782Z,101739.30
2018-01-22T21:24:10.103Z,101746.78
2018-01-22T21:26:39.157Z,101747.11
2018-01-22T21:29:07.489Z,101749.77
2018-01-22T21:31:36.539Z,101749.11
2018-01-22T21:34:04.893Z,101751.94
2018-01-22T21:36:33.375Z,101758.67
2018-01-22T21:39:01.681Z,101765.25
2018-01-22T21:41:31.061Z,101773.98
2018-01-22T21:43:59.433Z,101771.57
2018-01-22T21:46:28.489Z,101774.67
2018-01-22T21:48:56.791Z,101780.41
2018-01-22T21:51:25.092Z,101783.97
2018-01-22T21:53:54.207Z,101785.72
2018-01-22T21:56:22.519Z,101792.13
2018-01-22T21:58:50.835Z,101793.39
2018-01-22T22:01:19.155Z,101802.45
2018-01-22T22:03:47.469Z,101814.61
2018-01-22T22:06:15.761Z,101813.84
2018-01-22T22:08:45.566Z,101812.67
2018-01-22T22:11:14.305Z,101813.67
2018-01-22T22:13:43.383Z,101815.59
2018-01-22T22:16:11.739Z,101815.02
2018-01-22T22:18:40.053Z,101825.34
2018-01-22T22:21:08.357Z,101830.14
2018-01-22T22:23:36.666Z,101824.43
2018-01-22T22:26:05.031Z,101826.48
2018-01-22T22:28:33.342Z,101823.23
2018-01-22T22:31:01.640Z,101830.47
2018-01-22T22:33:29.955Z,101831.89
2018-01-22T22:35:59.077Z,101836.24
2018-01-22T22:38:28.317Z,101839.81
2018-01-22T22:40:56.631Z,101843.41
2018-01-22T22:43:25.753Z,101841.97
2018-01-22T22:45:54.123Z,101849.56
2018-01-22T22:48:23.184Z,101850.30
2018-01-22T22:50:51.485Z,101861.77
2018-01-22T22:53:19.785Z,101868.75
2018-01-22T22:55:48.941Z,101870.02
2018-01-22T22:58:17.250Z,101879.00
2018-01-22T23:00:45.556Z,101880.33
2018-01-22T23:03:14.666Z,101880.83
2018-01-22T23:05:43.051Z,101888.81
2018-01-22T23:08:11.363Z,101892.05
2018-01-22T23:10:39.673Z,101895.03
2018-01-22T23:13:07.970Z,101896.11
2018-01-22T23:15:37.770Z,101908.82
2018-01-22T23:18:06.140Z,101907.76
2018-01-22T23:20:35.090Z,101913.32
2018-01-22T23:23:03.384Z,101913.22
2018-01-22T23:25:31.678Z,101914.63
2018-01-22T23:27:59.977Z,101922.92
2018-01-22T23:30:28.455Z,101926.01
2018-01-22T23:32:57.786Z,101931.91
2018-01-22T23:35:26.088Z,101936.73
2018-01-22T23:37:55.549Z,101943.88
2018-01-22T23:40:23.860Z,101931.83
2018-01-22T23:42:52.932Z,101933.91
2018-01-22T23:45:21.604Z,101936.65
2018-01-22T23:47:49.906Z,101944.66
2018-01-22T23:50:18.210Z,101947.58
2018-01-22T23:52:47.279Z,101942.17
2018-01-22T23:55:16.428Z,101936.03
2018-01-22T23:57:45.544Z,101937.12
